Time;durP1;ratioP1;P1;durP2;ratioP2;P2;SDS_P1;SDS_P2;PMS_P1;PMS_P2;Temp;Humidity;BMP_temperature;BMP_pressure;BME280_temperature;BME280_humidity;BME280_pressure;Samples;Min_cycle;Max_cycle;Signal;HPM_P1;HPM_P2
2022/01/01 00:00:09;;;;;;;13.60;12.30;;;15.70;99.90;;;;;;5071963;28;20901;-65
2022/01/01 00:02:35;;;;;;;12.43;10.97;;;15.70;99.90;;;;;;5074047;28;20414;-72
2022/01/01 00:05:02;;;;;;;12.43;11.33;;;15.70;99.90;;;;;;5056315;28;20793;-65
2022/01/01 00:07:28;;;;;;;12.33;11.03;;;15.70;99.90;;;;;;5074029;28;20433;-64
2022/01/01 00:09:54;;;;;;;12.70;11.37;;;15.80;99.90;;;;;;5073760;28;20401;-64
2022/01/01 00:12:19;;;;;;;19.30;11.27;;;15.70;99.90;;;;;;5073959;28;20204;-64
2022/01/01 00:14:45;;;;;;;15.20;10.53;;;15.70;99.90;;;;;;5073679;28;20560;-64
2022/01/01 00:17:11;;;;;;;12.03;10.37;;;15.60;99.90;;;;;;5074837;28;20594;-66
2022/01/01 00:19:38;;;;;;;12.00;10.73;;;15.70;99.90;;;;;;5073274;28;20188;-77
2022/01/01 00:22:04;;;;;;;10.47;9.53;;;15.70;99.90;;;;;;5074552;28;20241;-66
2022/01/01 00:24:30;;;;;;;119.47;83.67;;;15.70;99.90;;;;;;5073803;28;20459;-66
2022/01/01 00:26:55;;;;;;;159.73;107.10;;;15.70;99.90;;;;;;5073390;28;20194;-66
2022/01/01 00:29:21;;;;;;;101.50;68.27;;;15.70;99.90;;;;;;5073423;28;20616;-66
2022/01/01 00:31:47;;;;;;;32.03;22.70;;;15.80;99.90;;;;;;5071500;28;20221;-67
2022/01/01 00:34:13;;;;;;;11.10;10.07;;;15.80;99.90;;;;;;5073080;28;20192;-66
2022/01/01 00:36:39;;;;;;;15.10;11.57;;;15.70;99.90;;;;;;5071548;28;20653;-71
2022/01/01 00:39:05;;;;;;;12.70;11.13;;;15.70;99.90;;;;;;5073571;28;20428;-65
2022/01/01 00:41:31;;;;;;;12.27;11.07;;;15.70;99.90;;;;;;5074048;28;20183;-65
2022/01/01 00:43:58;;;;;;;13.33;10.77;;;15.70;99.90;;;;;;5071683;28;21088;-66
2022/01/01 00:46:23;;;;;;;13.30;10.10;;;15.70;99.90;;;;;;5073624;28;20454;-66
2022/01/01 00:48:53;;;;;;;12.30;11.00;;;15.70;99.90;;;;;;5073113;28;20406;-67
2022/01/01 00:51:20;;;;;;;12.53;11.20;;;15.60;99.90;;;;;;5071911;28;20181;-66
2022/01/01 00:53:46;;;;;;;14.37;10.97;;;15.60;99.90;;;;;;5072712;28;20501;-67
2022/01/01 00:56:12;;;;;;;12.23;10.40;;;15.70;99.90;;;;;;5073457;28;20436;-67
2022/01/01 00:58:37;;;;;;;14.93;11.43;;;15.60;99.90;;;;;;5073061;28;20446;-76
2022/01/01 01:01:04;;;;;;;12.77;11.00;;;15.60;99.90;;;;;;5073254;28;20172;-66
2022/01/01 01:03:31;;;;;;;13.70;11.10;;;15.60;99.90;;;;;;5072114;28;20617;-66
2022/01/01 01:05:59;;;;;;;13.20;11.67;;;15.60;99.90;;;;;;5072543;28;20592;-67
2022/01/01 01:08:26;;;;;;;13.30;12.00;;;15.70;99.90;;;;;;5073288;28;20413;-66
2022/01/01 01:10:52;;;;;;;16.43;12.00;;;15.60;99.90;;;;;;5072647;28;20403;-67
2022/01/01 01:13:20;;;;;;;70.70;51.90;;;15.60;99.90;;;;;;5073013;28;20422;-66
2022/01/01 01:15:46;;;;;;;44.63;35.23;;;15.70;99.90;;;;;;5071475;28;20948;-66
2022/01/01 01:18:12;;;;;;;17.70;12.03;;;15.70;99.90;;;;;;5072929;28;20422;-66
2022/01/01 01:20:38;;;;;;;17.40;13.83;;;15.70;99.90;;;;;;5071278;28;20413;-77
2022/01/01 01:23:05;;;;;;;14.60;13.03;;;15.60;99.90;;;;;;5072845;28;20457;-65
2022/01/01 01:25:38;;;;;;;17.70;13.50;;;15.60;99.90;;;;;;5071700;28;20417;-64
2022/01/01 01:28:07;;;;;;;18.10;12.90;;;15.60;99.90;;;;;;5072584;28;20466;-65
2022/01/01 01:30:38;;;;;;;14.30;12.07;;;15.60;99.90;;;;;;5070516;28;20454;-65
2022/01/01 01:33:04;;;;;;;17.10;12.50;;;15.70;99.90;;;;;;5062729;28;20464;-65
2022/01/01 01:35:30;;;;;;;15.60;13.60;;;15.60;99.90;;;;;;5062864;28;20419;-67
2022/01/01 01:37:56;;;;;;;16.50;12.53;;;15.60;99.90;;;;;;5068823;28;20431;-69
2022/01/01 01:40:22;;;;;;;17.80;12.30;;;15.60;99.90;;;;;;5067835;28;20906;-65
2022/01/01 01:42:48;;;;;;;15.13;12.17;;;15.70;99.90;;;;;;5072009;28;20192;-66
2022/01/01 01:45:19;;;;;;;19.30;13.00;;;15.70;99.90;;;;;;5072338;28;20219;-65
2022/01/01 01:47:47;;;;;;;14.93;13.27;;;15.60;99.90;;;;;;5071975;28;20215;-66
2022/01/01 01:50:14;;;;;;;13.57;12.20;;;15.60;99.90;;;;;;5065486;28;20438;-66
2022/01/01 01:52:44;;;;;;;14.13;11.53;;;15.60;99.90;;;;;;5061024;28;20420;-71
2022/01/01 01:55:11;;;;;;;15.50;13.10;;;15.60;99.90;;;;;;5069147;28;20399;-69
2022/01/01 01:57:39;;;;;;;14.43;12.80;;;15.50;99.90;;;;;;5071776;28;20947;-71
2022/01/01 02:02:52;;;;;;;18.70;11.20;;;15.60;99.90;;;;;;5066475;28;20415;-65
2022/01/01 02:05:17;;;;;;;15.93;11.43;;;15.50;99.90;;;;;;5070577;28;20421;-65
2022/01/01 02:07:43;;;;;;;12.90;11.50;;;15.60;99.90;;;;;;5071444;28;20187;-66
2022/01/01 02:10:09;;;;;;;13.87;10.83;;;15.60;99.90;;;;;;5071435;28;20177;-65
2022/01/01 02:12:35;;;;;;;11.73;9.83;;;15.60;99.90;;;;;;5071531;28;20441;-65
2022/01/01 02:17:29;;;;;;;12.43;10.47;;;15.60;99.90;;;;;;5072216;28;20176;-65
2022/01/01 02:20:03;;;;;;;10.83;9.73;;;15.60;99.90;;;;;;5068118;28;20524;-66
2022/01/01 02:22:46;;;;;;;12.93;10.00;;;15.60;99.90;;;;;;5052290;28;20760;-66
2022/01/01 02:25:13;;;;;;;14.17;10.73;;;15.60;99.90;;;;;;5058160;28;20419;-66
2022/01/01 02:27:39;;;;;;;10.40;9.30;;;15.60;99.90;;;;;;5071308;28;20403;-72
2022/01/01 02:30:07;;;;;;;14.50;10.83;;;15.60;99.90;;;;;;5072175;28;20434;-65
2022/01/01 02:32:32;;;;;;;14.80;9.73;;;15.60;99.90;;;;;;5072122;28;20411;-65
2022/01/01 02:34:58;;;;;;;13.90;10.53;;;15.60;99.90;;;;;;5070609;28;20937;-65
2022/01/01 02:37:24;;;;;;;12.67;10.47;;;15.60;99.90;;;;;;5072383;28;20613;-66
2022/01/01 02:39:50;;;;;;;13.07;10.63;;;15.60;99.90;;;;;;5069798;28;20187;-66
2022/01/01 02:42:20;;;;;;;12.97;10.77;;;15.50;99.90;;;;;;5070195;28;20181;-65
2022/01/01 02:44:46;;;;;;;14.80;11.07;;;15.50;99.90;;;;;;5070854;28;20470;-65
2022/01/01 02:47:12;;;;;;;12.10;10.80;;;15.60;99.90;;;;;;5070780;28;20910;-65
2022/01/01 02:49:38;;;;;;;11.40;10.13;;;15.60;99.90;;;;;;5071630;28;20520;-71
2022/01/01 02:52:04;;;;;;;14.10;10.53;;;15.60;99.90;;;;;;5071635;28;20211;-65
2022/01/01 02:54:30;;;;;;;11.47;10.27;;;15.60;99.90;;;;;;5071802;28;20446;-65
2022/01/01 02:56:56;;;;;;;14.13;11.30;;;15.60;99.90;;;;;;5071161;28;20410;-65
2022/01/01 02:59:21;;;;;;;16.07;11.47;;;15.60;99.90;;;;;;5071367;28;20186;-66
2022/01/01 03:01:47;;;;;;;14.40;11.10;;;15.60;99.90;;;;;;5069715;28;20179;-65
2022/01/01 03:04:13;;;;;;;17.50;12.07;;;15.60;99.90;;;;;;5072093;28;20204;-65
2022/01/01 03:06:39;;;;;;;12.43;10.80;;;15.60;99.90;;;;;;5071854;28;20234;-70
2022/01/01 03:09:05;;;;;;;13.27;10.40;;;15.60;99.90;;;;;;5071831;28;20184;-65
2022/01/01 03:11:31;;;;;;;15.13;10.07;;;15.60;99.90;;;;;;5071830;28;20908;-65
2022/01/01 03:13:56;;;;;;;17.67;11.00;;;15.60;99.90;;;;;;5071295;28;20449;-65
2022/01/01 03:16:22;;;;;;;12.37;9.83;;;15.60;99.90;;;;;;5071679;28;20278;-65
2022/01/01 03:18:48;;;;;;;13.07;10.37;;;15.60;99.90;;;;;;5070958;28;20181;-65
2022/01/01 03:21:13;;;;;;;15.07;10.03;;;15.60;99.90;;;;;;5071779;28;20179;-66
2022/01/01 03:23:39;;;;;;;11.40;10.30;;;15.60;99.90;;;;;;5071696;28;20203;-76
2022/01/01 03:26:05;;;;;;;12.20;10.23;;;15.60;99.90;;;;;;5069955;28;20212;-65
2022/01/01 03:28:31;;;;;;;12.87;10.23;;;15.60;99.90;;;;;;5071703;28;20409;-65
2022/01/01 03:30:58;;;;;;;13.40;9.13;;;15.60;99.90;;;;;;5049411;28;20710;-65
2022/01/01 03:33:24;;;;;;;13.17;9.77;;;15.60;99.90;;;;;;5051625;28;20209;-65
2022/01/01 03:35:50;;;;;;;14.30;10.87;;;15.60;99.90;;;;;;5050855;28;20416;-66
2022/01/01 03:38:16;;;;;;;14.47;9.97;;;15.60;99.90;;;;;;5051269;28;20429;-65
2022/01/01 03:40:43;;;;;;;12.67;10.67;;;15.60;99.90;;;;;;5052593;28;20925;-72
2022/01/01 03:43:08;;;;;;;14.53;11.33;;;15.60;99.90;;;;;;5054835;28;20462;-65
2022/01/01 03:45:36;;;;;;;19.20;12.13;;;15.60;99.90;;;;;;5050718;28;20458;-67
2022/01/01 03:48:05;;;;;;;15.50;12.10;;;15.60;99.90;;;;;;5074611;28;20213;-67
2022/01/01 03:50:32;;;;;;;13.80;11.90;;;15.60;99.90;;;;;;5075050;28;20497;-67
2022/01/01 03:52:58;;;;;;;16.87;13.20;;;15.60;99.90;;;;;;5074252;28;20421;-67
2022/01/01 03:55:23;;;;;;;14.97;13.07;;;15.70;99.90;;;;;;5073757;28;20398;-68
2022/01/01 03:57:49;;;;;;;14.70;12.70;;;15.60;99.90;;;;;;5073811;28;20190;-68
2022/01/01 04:00:15;;;;;;;15.90;13.00;;;15.70;99.90;;;;;;5074443;28;20524;-68
2022/01/01 04:02:41;;;;;;;13.77;11.70;;;15.70;99.90;;;;;;5074796;28;20187;-74
2022/01/01 04:05:07;;;;;;;14.23;12.70;;;15.80;99.90;;;;;;5074145;28;21032;-68
2022/01/01 04:07:33;;;;;;;15.40;12.27;;;15.80;99.90;;;;;;5073430;28;20655;-68
2022/01/01 04:09:59;;;;;;;15.50;11.80;;;15.90;99.90;;;;;;5074155;28;20406;-68
2022/01/01 04:12:26;;;;;;;15.43;12.00;;;15.90;99.90;;;;;;5056696;28;20418;-68
2022/01/01 04:14:53;;;;;;;14.57;11.50;;;16.00;99.90;;;;;;5072268;28;20426;-68
2022/01/01 04:17:19;;;;;;;14.33;12.53;;;16.00;99.90;;;;;;5073382;28;20817;-68
2022/01/01 04:19:46;;;;;;;13.07;11.40;;;16.00;99.90;;;;;;5073730;28;20434;-75
2022/01/01 04:22:13;;;;;;;18.10;11.70;;;16.10;99.90;;;;;;5074774;28;20422;-68
2022/01/01 04:24:40;;;;;;;14.00;10.90;;;16.10;99.90;;;;;;5074471;28;20451;-68
2022/01/01 04:27:06;;;;;;;13.40;12.00;;;16.10;99.90;;;;;;5073324;28;20493;-68
2022/01/01 04:29:33;;;;;;;15.70;11.80;;;16.20;99.90;;;;;;5074226;28;20409;-70
2022/01/01 04:32:00;;;;;;;16.27;13.20;;;16.10;99.90;;;;;;5073386;28;20415;-68
2022/01/01 04:34:26;;;;;;;13.73;11.37;;;16.10;99.90;;;;;;5073111;28;20469;-68
2022/01/01 04:39:24;;;;;;;12.70;11.40;;;16.20;99.90;;;;;;5074331;28;20434;-68
2022/01/01 04:41:49;;;;;;;14.57;11.37;;;16.20;99.90;;;;;;5072046;28;20492;-68
2022/01/01 04:44:15;;;;;;;15.27;11.00;;;16.20;99.90;;;;;;5073578;28;20254;-68
2022/01/01 04:46:41;;;;;;;13.60;10.17;;;16.20;99.90;;;;;;5073345;28;20231;-68
2022/01/01 04:49:07;;;;;;;13.80;11.00;;;16.20;99.90;;;;;;5073210;28;20425;-68
2022/01/01 04:51:32;;;;;;;11.27;10.17;;;16.20;99.90;;;;;;5072408;28;20172;-68
2022/01/01 04:54:01;;;;;;;12.13;10.53;;;16.30;99.90;;;;;;5072346;28;20595;-68
2022/01/01 04:56:28;;;;;;;11.97;9.33;;;16.30;99.90;;;;;;5073608;28;20535;-66
2022/01/01 04:58:54;;;;;;;11.80;9.50;;;16.30;99.90;;;;;;5072786;28;20771;-67
2022/01/01 05:01:20;;;;;;;10.03;9.03;;;16.30;99.90;;;;;;5072138;28;20456;-67
2022/01/01 05:03:46;;;;;;;13.63;9.50;;;16.30;99.90;;;;;;5073032;28;20258;-75
2022/01/01 05:06:12;;;;;;;12.20;10.37;;;16.30;99.90;;;;;;5073253;28;20810;-65
2022/01/01 05:08:38;;;;;;;8.77;7.93;;;16.20;99.90;;;;;;5073390;28;20238;-65
2022/01/01 05:11:04;;;;;;;9.60;7.60;;;16.20;99.90;;;;;;5072770;28;20411;-65
2022/01/01 05:13:30;;;;;;;12.97;8.23;;;16.20;99.90;;;;;;5073568;28;20499;-65
2022/01/01 05:15:56;;;;;;;9.00;7.63;;;16.10;99.90;;;;;;5072080;28;20427;-65
2022/01/01 05:18:23;;;;;;;8.53;7.53;;;16.10;99.90;;;;;;5071554;28;20418;-65
2022/01/01 05:20:49;;;;;;;8.27;7.33;;;16.00;99.90;;;;;;5060911;28;20416;-72
2022/01/01 05:23:15;;;;;;;12.40;7.23;;;16.00;99.90;;;;;;5072490;28;20465;-65
2022/01/01 05:25:41;;;;;;;7.20;6.50;;;15.90;99.90;;;;;;5057144;28;20424;-65
2022/01/01 05:28:06;;;;;;;11.07;7.47;;;15.90;99.90;;;;;;5052491;28;20430;-65
2022/01/01 05:30:32;;;;;;;8.47;6.47;;;15.90;99.90;;;;;;5062652;28;20194;-65
2022/01/01 05:33:04;;;;;;;8.53;6.87;;;15.90;99.90;;;;;;5070679;28;20190;-65
2022/01/01 05:35:30;;;;;;;7.20;6.50;;;15.90;99.90;;;;;;5072645;28;20902;-66
2022/01/01 05:37:56;;;;;;;6.63;6.03;;;15.90;99.90;;;;;;5071602;28;20496;-67
2022/01/01 05:40:23;;;;;;;7.63;6.83;;;15.90;99.90;;;;;;5072986;28;20459;-66
2022/01/01 05:42:49;;;;;;;9.33;6.70;;;15.90;99.90;;;;;;5071137;28;20329;-72
2022/01/01 05:45:15;;;;;;;8.10;7.17;;;15.90;99.90;;;;;;5072094;28;21028;-65
2022/01/01 05:47:40;;;;;;;8.97;6.80;;;15.80;99.90;;;;;;5072190;28;20635;-66
2022/01/01 05:50:06;;;;;;;7.07;6.40;;;15.80;99.90;;;;;;5051703;28;20184;-66
2022/01/01 05:52:33;;;;;;;8.80;6.90;;;15.80;99.90;;;;;;5072440;28;20230;-66
2022/01/01 05:54:58;;;;;;;8.13;7.23;;;15.80;99.90;;;;;;5071600;28;20411;-66
2022/01/01 05:57:24;;;;;;;7.77;6.83;;;15.80;99.90;;;;;;5071256;28;20751;-66
2022/01/01 05:59:50;;;;;;;9.40;7.40;;;15.80;99.90;;;;;;5072201;28;20173;-72
2022/01/01 06:02:15;;;;;;;7.60;6.83;;;15.70;99.90;;;;;;5071490;28;20538;-67
2022/01/01 06:04:41;;;;;;;13.27;7.00;;;15.80;99.90;;;;;;5072514;28;20606;-67
2022/01/01 06:07:07;;;;;;;8.40;6.80;;;15.80;99.90;;;;;;5071627;28;20201;-67
2022/01/01 06:09:33;;;;;;;12.03;7.40;;;15.80;99.90;;;;;;5072070;28;20597;-65
2022/01/01 06:11:59;;;;;;;9.40;7.20;;;15.80;99.90;;;;;;5071716;28;20184;-68
2022/01/01 06:14:25;;;;;;;9.20;7.83;;;15.80;99.90;;;;;;5071915;28;20498;-66
2022/01/01 06:16:50;;;;;;;10.13;7.40;;;15.80;99.90;;;;;;5071617;28;20569;-71
2022/01/01 06:19:16;;;;;;;11.90;8.60;;;15.80;99.90;;;;;;5071824;28;20434;-67
2022/01/01 06:21:42;;;;;;;8.70;7.70;;;15.80;99.90;;;;;;5071682;28;20533;-65
2022/01/01 06:24:07;;;;;;;8.40;7.13;;;15.80;99.90;;;;;;5071223;28;20204;-65
2022/01/01 06:26:33;;;;;;;8.57;6.90;;;15.80;99.90;;;;;;5071985;28;20173;-65
2022/01/01 06:29:00;;;;;;;8.77;7.17;;;15.80;99.90;;;;;;5069538;28;20228;-67
2022/01/01 06:31:26;;;;;;;10.00;7.40;;;15.80;99.90;;;;;;5072195;28;20548;-65
2022/01/01 06:33:52;;;;;;;10.43;7.17;;;15.80;99.90;;;;;;5071330;28;20827;-77
2022/01/01 06:36:17;;;;;;;10.00;6.63;;;15.80;99.90;;;;;;5071800;28;20183;-65
2022/01/01 06:38:44;;;;;;;11.60;7.43;;;15.80;99.90;;;;;;5071791;28;20176;-65
2022/01/01 06:41:11;;;;;;;10.57;7.80;;;15.90;99.90;;;;;;5071048;28;20184;-65
2022/01/01 06:43:38;;;;;;;11.27;7.10;;;15.80;99.90;;;;;;5071682;28;20466;-65
2022/01/01 06:46:05;;;;;;;6.90;6.40;;;15.80;99.90;;;;;;5069914;28;20459;-65
2022/01/01 06:48:31;;;;;;;9.30;7.43;;;15.80;99.90;;;;;;5072179;28;20508;-65
2022/01/01 06:50:57;;;;;;;9.30;7.53;;;15.80;99.90;;;;;;5070679;28;20988;-65
2022/01/01 06:53:23;;;;;;;10.30;7.00;;;15.80;99.90;;;;;;5071765;28;20417;-65
2022/01/01 06:55:48;;;;;;;7.87;7.13;;;15.80;99.90;;;;;;5071881;28;20628;-66
2022/01/01 06:58:14;;;;;;;8.07;7.27;;;15.80;99.90;;;;;;5071117;28;20482;-66
2022/01/01 07:00:40;;;;;;;8.40;7.30;;;15.80;99.90;;;;;;5071673;28;20169;-65
2022/01/01 07:03:06;;;;;;;7.17;6.57;;;15.80;99.90;;;;;;5070712;28;20184;-65
2022/01/01 07:05:32;;;;;;;7.07;6.37;;;15.80;99.90;;;;;;5071917;28;20184;-65
2022/01/01 07:07:58;;;;;;;6.97;6.30;;;15.80;99.90;;;;;;5071174;28;20415;-66
2022/01/01 07:10:23;;;;;;;7.40;6.70;;;15.80;99.90;;;;;;5071849;28;20735;-65
2022/01/01 07:12:49;;;;;;;7.03;5.83;;;15.80;99.90;;;;;;5071405;28;20410;-65
2022/01/01 07:15:15;;;;;;;8.37;5.83;;;15.80;99.90;;;;;;5072708;28;20194;-65
2022/01/01 07:17:42;;;;;;;5.90;5.40;;;15.80;99.90;;;;;;5075374;28;20425;-65
2022/01/01 07:20:09;;;;;;;9.33;5.30;;;15.80;99.90;;;;;;5074862;28;20544;-65
2022/01/01 07:22:45;;;;;;;8.07;6.30;;;15.80;99.90;;;;;;5075861;28;20436;-66
2022/01/01 07:25:12;;;;;;;6.23;5.50;;;15.80;99.90;;;;;;5074513;28;20450;-67
2022/01/01 07:27:39;;;;;;;7.53;6.27;;;15.80;99.90;;;;;;5074522;28;20411;-66
2022/01/01 07:30:06;;;;;;;7.00;6.40;;;15.80;99.90;;;;;;5074552;28;20488;-66
2022/01/01 07:32:32;;;;;;;10.73;6.10;;;15.80;99.90;;;;;;5072454;28;20428;-67
2022/01/01 07:34:58;;;;;;;6.33;5.30;;;15.80;99.90;;;;;;5054497;28;20511;-74
2022/01/01 07:37:23;;;;;;;9.30;6.50;;;15.80;99.90;;;;;;5060559;28;20176;-69
2022/01/01 07:39:49;;;;;;;7.50;6.03;;;15.80;99.90;;;;;;5059626;28;20173;-70
2022/01/01 07:42:15;;;;;;;8.40;6.23;;;15.80;99.90;;;;;;5065129;28;20180;-69
2022/01/01 07:44:41;;;;;;;6.67;6.07;;;15.80;99.90;;;;;;5071626;28;20229;-69
2022/01/01 07:47:07;;;;;;;6.50;5.90;;;15.80;99.90;;;;;;5073610;28;20237;-69
2022/01/01 07:49:33;;;;;;;8.70;7.47;;;15.80;99.90;;;;;;5071157;28;20426;-69
2022/01/01 07:51:58;;;;;;;10.43;7.57;;;15.80;99.90;;;;;;5059907;28;20184;-72
2022/01/01 07:54:24;;;;;;;6.47;5.87;;;15.70;99.90;;;;;;5068857;28;20190;-69
2022/01/01 07:56:50;;;;;;;7.60;6.87;;;15.80;99.90;;;;;;5075004;28;20258;-68
2022/01/01 07:59:16;;;;;;;6.80;5.87;;;15.80;99.90;;;;;;5054696;28;20451;-69
2022/01/01 08:01:43;;;;;;;6.53;5.53;;;15.80;99.90;;;;;;5071427;28;20229;-68
2022/01/01 08:04:10;;;;;;;7.37;5.90;;;15.70;99.90;;;;;;5062468;28;20209;-69
2022/01/01 08:06:35;;;;;;;6.97;6.30;;;15.70;99.90;;;;;;5054681;28;20514;-68
2022/01/01 08:09:02;;;;;;;6.57;5.97;;;15.70;99.90;;;;;;5055199;28;20967;-69
2022/01/01 08:11:28;;;;;;;7.07;6.20;;;15.70;99.90;;;;;;5055432;28;20175;-68
2022/01/01 08:13:54;;;;;;;8.27;5.70;;;15.70;99.90;;;;;;5060757;28;20996;-68
2022/01/01 08:16:20;;;;;;;6.57;5.80;;;15.70;99.90;;;;;;5057374;28;20299;-68
2022/01/01 08:18:46;;;;;;;6.87;5.37;;;15.70;99.90;;;;;;5066557;28;20774;-69
2022/01/01 08:21:11;;;;;;;7.43;6.13;;;15.70;99.90;;;;;;5060263;28;20432;-68
2022/01/01 08:23:37;;;;;;;8.87;5.67;;;15.70;99.90;;;;;;5054356;28;20263;-68
2022/01/01 08:26:03;;;;;;;6.20;5.50;;;15.70;99.90;;;;;;5065464;28;20461;-69
2022/01/01 08:28:29;;;;;;;7.10;5.50;;;15.70;99.90;;;;;;5073603;28;20179;-68
2022/01/01 08:30:55;;;;;;;13.40;8.97;;;15.70;99.90;;;;;;5072935;28;20636;-69
2022/01/01 08:33:21;;;;;;;9.97;7.30;;;16.00;99.90;;;;;;5072881;28;20417;-69
2022/01/01 08:35:47;;;;;;;9.07;6.80;;;16.50;99.90;;;;;;5074278;28;20518;-69
2022/01/01 08:38:16;;;;;;;6.67;5.87;;;17.00;99.90;;;;;;5072624;28;20423;-69
2022/01/01 08:40:42;;;;;;;5.90;5.40;;;17.50;99.90;;;;;;5074017;28;20169;-69
2022/01/01 08:43:07;;;;;;;5.83;5.30;;;17.80;99.90;;;;;;5071616;28;20843;-69
2022/01/01 08:45:36;;;;;;;6.37;5.77;;;18.10;99.90;;;;;;5073508;28;20219;-69
2022/01/01 08:48:01;;;;;;;5.80;5.27;;;18.40;99.00;;;;;;5072163;28;20177;-75
2022/01/01 08:50:27;;;;;;;5.57;5.10;;;18.70;98.50;;;;;;5074040;28;20411;-69
2022/01/01 08:52:53;;;;;;;6.87;5.80;;;18.80;98.10;;;;;;5073154;28;20219;-69
2022/01/01 08:55:19;;;;;;;6.50;5.90;;;18.80;96.40;;;;;;5072378;28;20184;-69
2022/01/01 08:57:47;;;;;;;8.37;6.23;;;18.70;95.80;;;;;;5073743;28;20535;-69
2022/01/01 09:00:13;;;;;;;5.73;5.27;;;18.50;95.90;;;;;;5072869;28;20169;-70
2022/01/01 09:02:39;;;;;;;6.13;5.50;;;18.20;96.40;;;;;;5072772;28;20507;-69
2022/01/01 09:05:07;;;;;;;6.10;5.50;;;18.00;96.90;;;;;;5067067;28;20542;-69
2022/01/01 09:07:33;;;;;;;6.00;5.17;;;17.80;97.50;;;;;;5071639;28;20889;-68
2022/01/01 09:10:00;;;;;;;5.90;5.40;;;17.60;97.90;;;;;;5073426;28;20415;-68
2022/01/01 09:12:27;;;;;;;7.07;5.73;;;17.40;98.30;;;;;;5073012;28;20177;-68
2022/01/01 09:14:54;;;;;;;7.87;6.50;;;17.20;98.90;;;;;;5073221;28;20423;-68
2022/01/01 09:17:20;;;;;;;6.17;5.50;;;17.10;98.50;;;;;;5071942;28;20948;-68
2022/01/01 09:19:49;;;;;;;6.60;4.13;;;16.90;98.40;;;;;;5073282;28;20435;-68
2022/01/01 09:22:15;;;;;;;7.40;4.73;;;16.80;98.40;;;;;;5072510;28;20447;-68
2022/01/01 09:24:41;;;;;;;5.00;4.60;;;16.70;98.80;;;;;;5072027;28;20455;-69
2022/01/01 09:27:07;;;;;;;4.20;3.63;;;16.60;98.90;;;;;;5071022;28;20748;-68
2022/01/01 09:29:33;;;;;;;8.90;5.30;;;16.50;99.30;;;;;;5072705;28;20407;-72
2022/01/01 09:32:00;;;;;;;7.60;4.87;;;16.40;99.60;;;;;;5072130;28;20782;-68
2022/01/01 09:34:25;;;;;;;5.30;4.80;;;16.30;99.80;;;;;;5071841;28;20434;-68
2022/01/01 09:36:54;;;;;;;6.53;4.10;;;16.30;99.80;;;;;;5072153;28;20422;-68
2022/01/01 09:39:20;;;;;;;6.70;4.57;;;16.20;99.70;;;;;;5072045;28;20180;-69
2022/01/01 09:41:46;;;;;;;5.03;4.40;;;16.10;99.70;;;;;;5072726;28;20423;-69
2022/01/01 09:44:17;;;;;;;6.03;4.43;;;16.10;99.80;;;;;;5070676;28;20823;-68
2022/01/01 09:46:45;;;;;;;4.07;3.67;;;16.10;99.70;;;;;;5071181;28;20462;-68
2022/01/01 09:49:13;;;;;;;4.20;3.80;;;16.30;99.70;;;;;;5071880;28;20514;-69
2022/01/01 09:51:41;;;;;;;4.67;4.10;;;16.50;99.20;;;;;;5072801;28;20418;-68
2022/01/01 09:54:08;;;;;;;5.97;4.60;;;16.60;98.40;;;;;;5071457;28;20761;-69
2022/01/01 09:56:34;;;;;;;5.40;4.17;;;16.80;98.30;;;;;;5072743;28;20403;-69
2022/01/01 09:59:03;;;;;;;5.87;4.17;;;16.90;97.70;;;;;;5072431;28;20420;-68
2022/01/01 10:01:29;;;;;;;5.53;4.30;;;17.10;97.10;;;;;;5072253;28;20407;-68
2022/01/01 10:03:56;;;;;;;4.53;3.80;;;17.00;97.00;;;;;;5071601;28;20871;-68
2022/01/01 10:06:23;;;;;;;5.57;3.90;;;17.10;96.70;;;;;;5070331;28;20184;-69
2022/01/01 10:08:59;;;;;;;5.40;5.00;;;17.30;96.60;;;;;;5071933;28;20422;-68
2022/01/01 10:11:27;;;;;;;4.17;3.87;;;17.80;95.80;;;;;;5070492;28;20692;-69
2022/01/01 10:13:53;;;;;;;6.00;5.40;;;18.20;94.60;;;;;;5071850;28;20418;-69
2022/01/01 10:16:19;;;;;;;6.17;3.93;;;18.40;94.00;;;;;;5071485;28;20756;-71
2022/01/01 10:18:51;;;;;;;5.70;4.17;;;18.20;93.80;;;;;;5072189;28;20420;-68
2022/01/01 10:21:28;;;;;;;4.90;4.30;;;17.90;94.60;;;;;;5071686;28;20844;-68
2022/01/01 10:23:56;;;;;;;6.07;4.17;;;17.80;95.00;;;;;;5072071;28;20447;-68
2022/01/01 10:29:13;;;;;;;4.50;4.20;;;17.50;95.80;;;;;;5071022;28;20423;-68
2022/01/01 10:31:40;;;;;;;5.20;4.80;;;17.30;95.90;;;;;;5072289;28;20477;-68
2022/01/01 10:34:12;;;;;;;4.67;4.30;;;17.20;96.10;;;;;;5070647;28;20458;-73
2022/01/01 10:36:38;;;;;;;5.10;4.60;;;17.30;96.40;;;;;;5051874;28;20408;-68
2022/01/01 10:39:09;;;;;;;4.47;4.07;;;17.20;96.40;;;;;;5051927;28;20419;-68
2022/01/01 10:41:51;;;;;;;5.00;4.33;;;17.10;96.60;;;;;;5052110;28;20177;-68
2022/01/01 10:44:22;;;;;;;5.00;4.20;;;16.90;97.30;;;;;;5050873;28;20513;-68
2022/01/01 10:46:47;;;;;;;4.90;4.47;;;16.80;97.20;;;;;;5055074;28;20447;-68
2022/01/01 10:52:33;;;;;;;5.17;4.60;;;16.80;97.70;;;;;;5075234;28;20168;-69
2022/01/01 10:55:01;;;;;;;5.87;3.93;;;16.70;97.60;;;;;;5076271;28;20406;-69
2022/01/01 10:57:34;;;;;;;3.97;3.67;;;16.50;97.60;;;;;;5075137;28;20510;-68
2022/01/01 11:00:20;;;;;;;5.00;4.27;;;16.50;98.10;;;;;;5075839;28;20432;-68
2022/01/01 11:02:53;;;;;;;4.27;3.70;;;16.50;98.10;;;;;;5058158;28;20923;-68
2022/01/01 11:05:31;;;;;;;27.47;23.20;;;16.60;98.10;;;;;;5075141;28;20512;-68
2022/01/01 11:07:58;;;;;;;50.23;38.80;;;16.60;98.00;;;;;;5076231;28;20411;-68
2022/01/01 11:10:24;;;;;;;24.77;20.87;;;16.60;98.00;;;;;;5073201;28;20419;-68
2022/01/01 11:12:51;;;;;;;4.87;4.50;;;16.50;98.10;;;;;;5074142;28;20954;-68
2022/01/01 11:15:17;;;;;;;5.97;5.03;;;16.50;98.20;;;;;;5075004;28;20439;-69
2022/01/01 11:17:44;;;;;;;6.00;5.00;;;16.60;98.20;;;;;;5075130;28;20472;-70
2022/01/01 11:20:11;;;;;;;4.60;4.20;;;16.70;98.20;;;;;;5073643;28;20505;-73
2022/01/01 11:22:36;;;;;;;5.23;3.97;;;16.80;98.10;;;;;;5074748;28;20419;-66
2022/01/01 11:25:03;;;;;;;4.80;4.40;;;16.90;97.80;;;;;;5073929;28;20459;-68
2022/01/01 11:27:29;;;;;;;8.30;5.83;;;17.00;97.80;;;;;;5074604;28;20184;-67
2022/01/01 11:29:56;;;;;;;5.33;4.80;;;17.10;97.80;;;;;;5073888;28;20427;-67
2022/01/01 11:32:28;;;;;;;4.57;4.27;;;17.20;97.40;;;;;;5072336;28;20815;-69
2022/01/01 11:34:55;;;;;;;4.97;4.67;;;17.30;97.00;;;;;;5073819;28;20772;-66
2022/01/01 11:37:24;;;;;;;6.20;4.70;;;17.30;96.70;;;;;;5073134;28;20915;-67
2022/01/01 11:39:56;;;;;;;3.60;3.30;;;17.40;96.40;;;;;;5075315;28;20411;-67
2022/01/01 11:42:23;;;;;;;3.77;3.47;;;17.20;96.20;;;;;;5073962;28;20427;-67
2022/01/01 11:44:53;;;;;;;5.03;4.63;;;17.10;96.80;;;;;;5074648;28;20490;-66
2022/01/01 11:47:22;;;;;;;4.60;4.13;;;17.00;97.00;;;;;;5072424;28;20513;-69
2022/01/01 11:49:50;;;;;;;36.97;20.03;;;17.20;96.70;;;;;;5074406;28;20453;-66
2022/01/01 11:52:40;;;;;;;419.63;301.90;;;17.20;96.30;;;;;;5069925;28;20430;-68
2022/01/01 11:55:24;;;;;;;15.53;13.97;;;17.40;96.80;;;;;;5052167;28;20450;-68
2022/01/01 11:57:55;;;;;;;4.67;4.27;;;17.60;96.20;;;;;;5069650;28;20396;-67
2022/01/01 12:00:24;;;;;;;4.33;3.93;;;17.80;96.20;;;;;;5072207;28;20419;-68
2022/01/01 12:02:51;;;;;;;4.00;3.60;;;18.10;95.70;;;;;;5074323;28;20427;-67
2022/01/01 12:05:21;;;;;;;4.43;4.03;;;18.40;94.80;;;;;;5073451;28;20454;-68
2022/01/01 12:07:53;;;;;;;4.47;4.10;;;18.60;94.30;;;;;;5074142;28;20422;-68
2022/01/01 12:10:37;;;;;;;4.90;4.40;;;18.40;94.10;;;;;;5073299;28;20511;-67
2022/01/01 12:13:02;;;;;;;4.87;4.57;;;18.50;93.90;;;;;;5074000;28;20822;-69
2022/01/01 12:15:35;;;;;;;5.60;5.07;;;18.50;93.70;;;;;;5071125;28;20439;-68
2022/01/01 12:18:04;;;;;;;47.53;35.70;;;18.20;93.80;;;;;;5054503;28;20180;-67
2022/01/01 12:20:45;;;;;;;20.87;18.63;;;18.10;94.40;;;;;;5056357;28;20442;-67
2022/01/01 12:23:16;;;;;;;5.03;4.53;;;18.00;94.40;;;;;;5060919;28;20918;-74
2022/01/01 12:25:44;;;;;;;9.53;5.10;;;17.40;95.80;;;;;;5065331;28;20870;-69
2022/01/01 12:28:15;;;;;;;4.57;4.10;;;17.50;96.50;;;;;;5060602;28;20432;-68
2022/01/01 12:30:52;;;;;;;5.67;4.67;;;17.60;96.00;;;;;;5070544;28;20422;-69
2022/01/01 12:33:39;;;;;;;987.60;620.30;;;17.60;95.90;;;;;;5044221;28;20851;-70
2022/01/01 12:36:08;;;;;;;23.53;21.03;;;17.80;96.10;;;;;;5065284;28;20851;-67
2022/01/01 12:38:35;;;;;;;55.50;48.80;;;17.80;95.60;;;;;;5066341;28;21384;-68
2022/01/01 12:41:03;;;;;;;74.83;42.73;;;17.90;95.50;;;;;;5068342;28;20423;-69
2022/01/01 12:44:02;;;;;;;5.00;4.60;;;17.70;95.90;;;;;;5067418;28;20463;-68
2022/01/01 12:46:30;;;;;;;4.37;3.97;;;17.50;95.40;;;;;;5024481;28;20474;-69
2022/01/01 12:48:59;;;;;;;7.73;5.50;;;17.10;96.50;;;;;;5071180;28;20433;-67
2022/01/01 12:51:27;;;;;;;6.33;4.50;;;17.10;97.20;;;;;;5068074;28;20469;-67